createdAt,value
2019-01-24T00:01:00.922Z,30.53
2019-01-24T00:03:30.201Z,31.63
2019-01-24T00:05:59.910Z,32.63
2019-01-24T00:08:29.761Z,32.43
2019-01-24T00:10:59.742Z,31.87
2019-01-24T00:13:29.499Z,33.03
2019-01-24T00:15:59.280Z,31.87
2019-01-24T00:18:29.336Z,31.87
2019-01-24T00:20:59.106Z,32.07
2019-01-24T00:23:28.835Z,31.43
2019-01-24T00:25:59.808Z,31.10
2019-01-24T00:28:29.517Z,32.07
2019-01-24T00:31:02.819Z,32.07
2019-01-24T00:33:32.844Z,31.60
2019-01-24T00:36:05.041Z,32.93
2019-01-24T00:38:34.895Z,30.73
2019-01-24T00:41:06.283Z,33.20
2019-01-24T00:43:35.292Z,32.80
2019-01-24T00:46:10.506Z,31.73
2019-01-24T00:48:39.786Z,32.53
2019-01-24T00:51:14.686Z,32.83
2019-01-24T00:53:44.410Z,33.70
2019-01-24T00:56:17.384Z,31.23
2019-01-24T00:58:47.160Z,30.43
2019-01-24T01:01:20.254Z,31.03
2019-01-24T01:03:50.253Z,31.17
2019-01-24T01:06:22.038Z,31.07
2019-01-24T01:08:51.079Z,32.07
2019-01-24T01:11:25.559Z,30.93
2019-01-24T01:13:55.239Z,30.90
2019-01-24T01:16:25.429Z,31.77
2019-01-24T01:18:55.740Z,32.97
2019-01-24T01:21:30.982Z,31.00
2019-01-24T01:24:00.061Z,32.37
2019-01-24T01:26:30.530Z,31.43
2019-01-24T01:29:00.260Z,32.23
2019-01-24T01:31:33.980Z,33.27
2019-01-24T01:34:03.292Z,32.97
2019-01-24T01:36:36.448Z,33.93
2019-01-24T01:39:08.648Z,31.07
2019-01-24T01:41:42.029Z,33.80
2019-01-24T01:44:11.178Z,33.00
2019-01-24T01:46:43.076Z,33.70
2019-01-24T01:49:13.073Z,35.63
2019-01-24T01:51:45.751Z,33.20
2019-01-24T01:54:15.509Z,33.57
2019-01-24T01:56:47.399Z,32.90
2019-01-24T01:59:17.988Z,33.03
2019-01-24T02:01:52.151Z,31.83
2019-01-24T02:04:21.170Z,35.27
2019-01-24T02:06:53.373Z,34.50
2019-01-24T02:09:23.694Z,33.47
2019-01-24T02:11:57.826Z,33.00
2019-01-24T02:14:27.852Z,33.40
2019-01-24T02:17:03.144Z,34.13
2019-01-24T02:19:32.853Z,34.20
2019-01-24T02:22:05.903Z,34.27
2019-01-24T02:24:35.655Z,35.43
2019-01-24T02:27:06.956Z,33.33
2019-01-24T02:29:36.928Z,33.17
2019-01-24T02:32:11.585Z,32.17
2019-01-24T02:34:41.362Z,33.27
2019-01-24T02:37:13.407Z,31.87
2019-01-24T02:39:43.136Z,32.63
2019-01-24T02:42:17.536Z,33.67
2019-01-24T02:44:47.272Z,32.20
2019-01-24T02:47:18.591Z,32.17
2019-01-24T02:49:47.593Z,32.50
2019-01-24T02:52:23.310Z,33.63
2019-01-24T02:54:53.248Z,32.77
2019-01-24T02:57:27.878Z,33.07
2019-01-24T02:59:57.735Z,32.43
2019-01-24T03:02:27.873Z,33.30
2019-01-24T03:04:57.678Z,32.60
2019-01-24T03:07:30.236Z,33.30
2019-01-24T03:10:00.203Z,32.37
2019-01-24T03:12:32.509Z,33.63
2019-01-24T03:15:02.223Z,32.97
2019-01-24T03:17:33.824Z,32.30
2019-01-24T03:20:04.196Z,32.57
2019-01-24T03:22:42.110Z,32.67
2019-01-24T03:25:11.363Z,33.07
2019-01-24T03:27:41.461Z,34.83
2019-01-24T03:30:16.509Z,32.87
2019-01-24T03:32:46.529Z,33.17
2019-01-24T03:35:21.523Z,34.37
2019-01-24T03:37:50.531Z,34.90
2019-01-24T03:40:19.825Z,31.47
2019-01-24T03:42:50.795Z,33.80
2019-01-24T03:45:20.777Z,31.97
2019-01-24T03:47:53.617Z,32.57
2019-01-24T03:50:25.479Z,33.10
2019-01-24T03:52:58.236Z,33.13
2019-01-24T03:55:28.215Z,29.27
2019-01-24T03:58:01.049Z,33.03
2019-01-24T04:00:30.747Z,34.73
2019-01-24T04:03:02.896Z,33.47
2019-01-24T04:05:31.960Z,32.70
2019-01-24T04:08:05.799Z,32.67
2019-01-24T04:10:35.121Z,33.70
2019-01-24T04:13:10.129Z,34.60
2019-01-24T04:15:40.118Z,34.00
2019-01-24T04:18:15.488Z,34.37
2019-01-24T04:20:45.191Z,32.73
2019-01-24T04:23:16.501Z,34.83
2019-01-24T04:25:45.495Z,32.50
2019-01-24T04:28:19.408Z,31.50
2019-01-24T04:30:49.367Z,32.90
2019-01-24T04:33:20.225Z,32.10
2019-01-24T04:35:49.750Z,35.27
2019-01-24T04:38:22.327Z,33.33
2019-01-24T04:40:52.362Z,33.80
2019-01-24T04:43:28.188Z,31.17
2019-01-24T04:45:57.244Z,32.70
2019-01-24T04:48:29.297Z,31.77
2019-01-24T04:50:59.385Z,32.67
2019-01-24T04:53:31.332Z,33.67
2019-01-24T04:56:01.023Z,32.80
2019-01-24T04:58:33.359Z,30.40
2019-01-24T05:01:03.101Z,30.63
2019-01-24T05:03:36.381Z,31.43
2019-01-24T05:06:06.803Z,33.70
2019-01-24T05:08:38.627Z,32.13
2019-01-24T05:11:08.331Z,32.03
2019-01-24T05:13:42.551Z,34.93
2019-01-24T05:16:11.554Z,34.27
2019-01-24T05:18:52.639Z,33.53
2019-01-24T05:21:22.737Z,33.47
2019-01-24T05:23:51.734Z,34.77
2019-01-24T05:26:21.469Z,33.37
2019-01-24T05:28:51.460Z,32.93
2019-01-24T05:31:21.148Z,34.33
2019-01-24T05:33:53.499Z,36.10
2019-01-24T05:36:22.777Z,35.37
2019-01-24T05:38:58.283Z,35.10
2019-01-24T05:41:28.062Z,36.90
2019-01-24T05:44:00.057Z,36.83
2019-01-24T05:46:29.796Z,36.10
2019-01-24T05:49:03.381Z,36.67
2019-01-24T05:51:32.407Z,35.67
2019-01-24T05:54:05.532Z,34.10
2019-01-24T05:56:36.521Z,36.87
2019-01-24T05:59:09.692Z,34.10
2019-01-24T06:01:39.129Z,35.50
2019-01-24T06:04:14.559Z,37.07
2019-01-24T06:06:44.267Z,37.23
2019-01-24T06:09:18.792Z,34.77
2019-01-24T06:11:48.743Z,32.60
2019-01-24T06:14:19.666Z,35.07
2019-01-24T06:16:49.414Z,34.27
2019-01-24T06:19:21.544Z,33.73
2019-01-24T06:21:50.564Z,34.23
2019-01-24T06:24:22.695Z,32.70
2019-01-24T06:26:52.692Z,34.57
2019-01-24T06:29:27.375Z,34.53
2019-01-24T06:31:57.099Z,34.77
2019-01-24T06:34:29.451Z,33.07
2019-01-24T06:36:59.236Z,33.20
2019-01-24T06:39:31.748Z,34.73
2019-01-24T06:42:01.449Z,33.27
2019-01-24T06:44:35.136Z,34.57
2019-01-24T06:47:10.810Z,33.23
2019-01-24T06:49:39.986Z,31.90
2019-01-24T06:52:09.927Z,34.27
2019-01-24T06:54:40.252Z,35.10
2019-01-24T06:57:10.004Z,35.43
2019-01-24T06:59:42.826Z,35.80
2019-01-24T07:02:13.043Z,34.77
2019-01-24T07:04:45.245Z,32.33
2019-01-24T07:07:14.275Z,33.07
2019-01-24T07:09:48.856Z,34.47
2019-01-24T07:12:18.705Z,35.40
2019-01-24T07:14:54.613Z,34.03
2019-01-24T07:17:24.193Z,36.77
2019-01-24T07:20:11.797Z,33.80
2019-01-24T07:22:40.816Z,36.80
2019-01-24T07:25:13.318Z,34.50
2019-01-24T07:27:42.426Z,37.17
2019-01-24T07:30:13.718Z,34.67
2019-01-24T07:32:43.942Z,34.83
2019-01-24T07:35:13.652Z,37.43
2019-01-24T07:37:43.358Z,36.57
2019-01-24T07:40:13.430Z,34.83
2019-01-24T07:42:43.212Z,35.83
2019-01-24T07:45:41.355Z,37.57
2019-01-24T07:48:17.038Z,36.70
2019-01-24T07:50:47.547Z,36.10
2019-01-24T07:53:17.765Z,34.67
2019-01-24T07:55:47.520Z,37.80
2019-01-24T07:58:20.251Z,34.90
2019-01-24T08:00:49.275Z,37.77
2019-01-24T08:03:25.005Z,36.10
2019-01-24T08:05:54.060Z,33.10
2019-01-24T08:08:27.677Z,35.97
2019-01-24T08:10:57.436Z,35.13
2019-01-24T08:13:27.435Z,34.97
2019-01-24T08:15:57.340Z,36.20
2019-01-24T08:18:30.127Z,34.53
2019-01-24T08:20:59.135Z,35.87
2019-01-24T08:23:32.053Z,37.20
2019-01-24T08:26:01.769Z,34.53
2019-01-24T08:28:37.429Z,36.20
2019-01-24T08:31:06.734Z,36.60
2019-01-24T08:33:39.565Z,37.87
2019-01-24T08:36:08.606Z,39.50
2019-01-24T08:38:41.527Z,38.73
2019-01-24T08:41:10.570Z,36.37
2019-01-24T08:43:49.220Z,39.20
2019-01-24T08:46:19.234Z,37.07
2019-01-24T08:48:49.000Z,35.50
2019-01-24T08:51:18.709Z,35.57
2019-01-24T08:53:49.960Z,34.73
2019-01-24T08:56:19.677Z,34.97
2019-01-24T08:58:53.790Z,36.93
2019-01-24T09:01:23.103Z,34.90
2019-01-24T09:03:55.160Z,36.17
2019-01-24T09:06:25.896Z,34.67
2019-01-24T09:08:58.485Z,34.83
2019-01-24T09:11:28.186Z,34.80
2019-01-24T09:14:03.302Z,34.40
2019-01-24T09:16:34.155Z,34.60
2019-01-24T09:19:06.186Z,35.43
2019-01-24T09:21:35.990Z,34.17
2019-01-24T09:24:11.457Z,35.97
2019-01-24T09:26:41.182Z,33.23
2019-01-24T09:29:14.301Z,32.83
2019-01-24T09:31:44.035Z,32.27
2019-01-24T09:34:15.548Z,34.07
2019-01-24T09:36:45.668Z,34.53
2019-01-24T09:39:19.972Z,35.37
2019-01-24T09:41:49.393Z,34.77
2019-01-24T09:44:20.725Z,34.97
2019-01-24T09:46:49.764Z,35.63
2019-01-24T09:49:23.191Z,33.77
2019-01-24T09:51:52.237Z,33.93
2019-01-24T09:56:56.566Z,35.67
2019-01-24T09:59:27.119Z,33.00
2019-01-24T10:01:56.920Z,33.23
2019-01-24T10:04:31.532Z,34.27
2019-01-24T10:07:01.253Z,33.77
2019-01-24T10:09:34.234Z,33.63
2019-01-24T10:12:04.209Z,33.50
2019-01-24T10:14:36.896Z,32.70
2019-01-24T10:17:07.986Z,34.63
2019-01-24T10:19:39.132Z,33.30
2019-01-24T10:22:08.877Z,34.53
2019-01-24T10:24:41.715Z,32.67
2019-01-24T10:27:11.420Z,33.03
2019-01-24T10:29:48.509Z,34.80
2019-01-24T10:32:18.217Z,34.60
2019-01-24T10:34:48.020Z,33.10
2019-01-24T10:37:18.660Z,33.87
2019-01-24T10:39:50.618Z,31.93
2019-01-24T10:42:20.824Z,33.97
2019-01-24T10:44:53.644Z,35.20
2019-01-24T10:47:23.399Z,34.87
2019-01-24T10:49:57.391Z,34.03
2019-01-24T10:52:26.788Z,34.20
2019-01-24T10:54:59.448Z,35.33
2019-01-24T10:57:28.782Z,33.87
2019-01-24T11:00:01.904Z,33.10
2019-01-24T11:02:31.616Z,33.10
2019-01-24T11:05:06.778Z,31.90
2019-01-24T11:07:36.507Z,31.93
2019-01-24T11:10:10.292Z,32.53
2019-01-24T11:12:39.285Z,32.03
2019-01-24T11:15:16.017Z,32.10
2019-01-24T11:17:45.929Z,30.13
2019-01-24T11:21:13.335Z,33.43
2019-01-24T11:23:43.125Z,31.77
2019-01-24T11:26:20.936Z,31.73
2019-01-24T11:28:50.145Z,31.53
2019-01-24T11:31:22.018Z,37.97
2019-01-24T11:33:51.844Z,34.63
2019-01-24T11:36:25.679Z,36.20
2019-01-24T11:38:55.483Z,33.57
2019-01-24T11:41:27.857Z,35.03
2019-01-24T11:43:57.948Z,32.27
2019-01-24T11:46:28.523Z,33.80
2019-01-24T11:48:58.266Z,33.90
2019-01-24T11:51:31.331Z,32.00
2019-01-24T11:54:01.074Z,34.53
2019-01-24T11:56:35.473Z,34.47
2019-01-24T11:59:05.710Z,33.13
2019-01-24T12:01:36.577Z,33.87
2019-01-24T12:04:05.630Z,33.47
2019-01-24T12:06:38.875Z,34.87
2019-01-24T12:09:10.001Z,33.90
2019-01-24T12:11:40.452Z,33.23
2019-01-24T12:14:10.617Z,34.70
2019-01-24T12:16:45.886Z,31.67
2019-01-24T12:19:15.661Z,33.03
2019-01-24T12:21:48.849Z,33.63
2019-01-24T12:24:18.591Z,32.93
2019-01-24T12:26:51.878Z,33.70
2019-01-24T12:29:21.653Z,34.17
2019-01-24T12:31:54.069Z,34.00
2019-01-24T12:34:23.473Z,32.90
2019-01-24T12:36:56.098Z,36.40
2019-01-24T12:39:26.487Z,32.87
2019-01-24T12:42:00.510Z,35.60
2019-01-24T12:44:30.214Z,33.83
2019-01-24T12:47:04.296Z,34.17
2019-01-24T12:49:33.614Z,34.47
2019-01-24T12:52:05.553Z,35.03
2019-01-24T12:57:10.588Z,34.87
2019-01-24T12:59:54.227Z,33.70
2019-01-24T13:02:45.212Z,37.13
2019-01-24T13:05:29.605Z,36.80
2019-01-24T13:08:21.225Z,33.57
2019-01-24T13:10:50.426Z,36.73
2019-01-24T13:13:22.476Z,39.30
2019-01-24T13:15:51.504Z,36.77
2019-01-24T13:18:21.563Z,36.77
2019-01-24T13:20:52.725Z,37.13
2019-01-24T13:23:22.460Z,36.20
2019-01-24T13:25:51.486Z,36.63
2019-01-24T13:28:26.961Z,39.87
2019-01-24T13:30:56.691Z,37.43
2019-01-24T13:33:29.615Z,37.83
2019-01-24T13:35:59.708Z,39.20
2019-01-24T13:38:30.189Z,37.87
2019-01-24T13:40:59.920Z,37.80
2019-01-24T13:43:33.129Z,35.67
2019-01-24T13:46:04.678Z,37.90
2019-01-24T13:48:37.670Z,38.77
2019-01-24T13:51:07.755Z,39.57
2019-01-24T13:53:41.605Z,37.27
2019-01-24T13:56:11.380Z,37.33
2019-01-24T13:58:41.705Z,36.83
2019-01-24T14:01:11.530Z,37.17
2019-01-24T14:03:54.550Z,36.40
2019-01-24T14:06:24.967Z,45.70
2019-01-24T14:08:54.180Z,40.73
2019-01-24T14:11:25.214Z,56.63
2019-01-24T14:13:56.158Z,45.57
2019-01-24T14:16:28.714Z,44.43
2019-01-24T14:18:58.645Z,32.93
2019-01-24T14:21:28.874Z,32.43
2019-01-24T14:23:59.100Z,31.67
2019-01-24T14:26:28.961Z,79.83
2019-01-24T14:28:58.928Z,35.57
2019-01-24T14:31:29.446Z,31.97
2019-01-24T14:34:02.442Z,31.40
2019-01-24T14:36:32.353Z,31.63
2019-01-24T14:39:08.792Z,31.57
2019-01-24T14:41:38.719Z,35.47
2019-01-24T14:44:09.714Z,33.13
2019-01-24T14:46:39.480Z,30.97
2019-01-24T14:49:13.034Z,32.33
2019-01-24T14:51:42.836Z,33.47
2019-01-24T14:54:16.619Z,32.53
2019-01-24T14:56:45.649Z,31.93
2019-01-24T14:59:18.681Z,34.43
2019-01-24T15:01:49.112Z,32.13
2019-01-24T15:04:20.959Z,32.10
2019-01-24T15:06:50.092Z,32.33
2019-01-24T15:09:22.769Z,31.97
2019-01-24T15:11:51.787Z,36.83
2019-01-24T15:14:27.750Z,33.10
2019-01-24T15:16:56.985Z,32.40
2019-01-24T15:19:29.472Z,34.40
2019-01-24T15:21:58.796Z,53.47
2019-01-24T15:24:29.846Z,59.53
2019-01-24T15:26:59.816Z,41.53
2019-01-24T15:29:32.911Z,33.17
2019-01-24T15:32:02.686Z,32.63
2019-01-24T15:34:35.558Z,33.10
2019-01-24T15:37:04.615Z,32.37
2019-01-24T15:39:40.168Z,30.43
2019-01-24T15:42:10.294Z,31.33
2019-01-24T15:44:41.226Z,30.33
2019-01-24T15:47:10.802Z,32.27
2019-01-24T15:49:42.957Z,32.33
2019-01-24T15:52:12.793Z,31.73
2019-01-24T15:54:45.488Z,32.77
2019-01-24T15:57:15.227Z,31.67
2019-01-24T15:59:49.534Z,30.97
2019-01-24T16:02:19.699Z,30.43
2019-01-24T16:04:51.993Z,31.07
2019-01-24T16:07:21.768Z,32.60
2019-01-24T16:09:55.665Z,30.07
2019-01-24T16:12:25.547Z,31.30
2019-01-24T16:14:58.406Z,32.60
2019-01-24T16:17:29.408Z,32.33
2019-01-24T16:20:02.371Z,32.73
2019-01-24T16:22:32.412Z,31.00
2019-01-24T16:25:04.869Z,30.97
2019-01-24T16:27:33.958Z,32.70
2019-01-24T16:30:10.033Z,31.47
2019-01-24T16:32:39.093Z,32.70
2019-01-24T16:35:12.643Z,33.00
2019-01-24T16:37:42.372Z,35.87
2019-01-24T16:40:15.736Z,34.57
2019-01-24T16:42:44.913Z,35.03
2019-01-24T16:45:20.191Z,30.90
2019-01-24T16:47:49.737Z,33.13
2019-01-24T16:50:20.423Z,36.17
2019-01-24T16:52:50.474Z,37.67
2019-01-24T16:55:26.317Z,34.00
2019-01-24T16:57:56.464Z,33.37
2019-01-24T17:02:55.823Z,33.93
2019-01-24T17:05:28.759Z,33.60
2019-01-24T17:07:59.262Z,33.27
2019-01-24T17:10:31.716Z,38.23
2019-01-24T17:13:01.727Z,34.83
2019-01-24T17:15:32.510Z,34.07
2019-01-24T17:18:15.686Z,34.63
2019-01-24T17:20:46.858Z,35.57
2019-01-24T17:23:16.478Z,35.83
2019-01-24T17:25:45.612Z,34.20
2019-01-24T17:28:15.398Z,30.53
2019-01-24T17:30:48.329Z,32.33
2019-01-24T17:33:19.716Z,34.60
2019-01-24T17:35:49.709Z,35.30
2019-01-24T17:38:23.708Z,34.90
2019-01-24T17:40:50.559Z,35.10
2019-01-24T17:43:20.240Z,40.47
2019-01-24T17:45:50.879Z,34.20
2019-01-24T17:48:19.926Z,37.47
2019-01-24T17:50:51.681Z,33.07
2019-01-24T17:53:23.190Z,33.50
2019-01-24T17:55:54.211Z,33.70
2019-01-24T17:58:26.830Z,36.60
2019-01-24T18:00:57.573Z,32.67
2019-01-24T18:03:26.778Z,33.37
2019-01-24T18:06:00.188Z,36.13
2019-01-24T18:08:31.362Z,34.73
2019-01-24T18:11:03.305Z,35.40
2019-01-24T18:13:33.257Z,43.43
2019-01-24T18:16:08.512Z,35.90
2019-01-24T18:18:43.638Z,32.53
2019-01-24T18:21:12.752Z,32.87
2019-01-24T18:23:53.405Z,34.57
2019-01-24T18:26:23.419Z,32.73
2019-01-24T18:28:53.464Z,35.23
2019-01-24T18:31:22.555Z,33.83
2019-01-24T18:33:52.412Z,37.40
2019-01-24T18:36:23.634Z,38.47
2019-01-24T18:38:53.628Z,35.63
2019-01-24T18:41:23.959Z,31.10
2019-01-24T18:43:54.294Z,34.00
2019-01-24T18:46:26.617Z,33.60
2019-01-24T18:48:57.337Z,29.50
2019-01-24T18:51:29.895Z,31.43
2019-01-24T18:54:05.408Z,32.17
2019-01-24T18:56:36.394Z,34.43
2019-01-24T18:59:06.822Z,38.00
2019-01-24T19:01:36.631Z,33.33
2019-01-24T19:04:06.070Z,34.43
2019-01-24T19:06:36.300Z,35.10
2019-01-24T19:09:09.509Z,34.80
2019-01-24T19:11:40.994Z,33.40
2019-01-24T19:14:10.204Z,35.20
2019-01-24T19:16:41.232Z,32.90
2019-01-24T19:19:11.792Z,35.07
2019-01-24T19:21:40.895Z,35.20
2019-01-24T19:24:10.009Z,35.90
2019-01-24T19:26:43.594Z,34.07
2019-01-24T19:29:13.487Z,34.80
2019-01-24T19:31:45.657Z,34.57
2019-01-24T19:34:20.875Z,34.03
2019-01-24T19:36:54.037Z,33.93
2019-01-24T19:39:26.111Z,34.27
2019-01-24T19:41:55.785Z,33.47
2019-01-24T19:44:26.277Z,35.87
2019-01-24T19:46:58.381Z,34.47
2019-01-24T19:49:27.679Z,34.77
2019-01-24T19:51:57.980Z,34.57
2019-01-24T19:54:32.991Z,36.53
2019-01-24T19:57:04.233Z,37.00
2019-01-24T19:59:34.379Z,36.50
2019-01-24T20:02:08.796Z,38.50
2019-01-24T20:04:38.648Z,39.80
2019-01-24T20:07:08.623Z,38.00
2019-01-24T20:09:38.862Z,38.33
2019-01-24T20:12:11.866Z,39.60
2019-01-24T20:14:42.247Z,38.97
2019-01-24T20:17:17.726Z,39.57
2019-01-24T20:19:47.341Z,39.20
2019-01-24T20:22:16.708Z,40.93
2019-01-24T20:24:47.059Z,38.00
2019-01-24T20:27:22.062Z,40.30
2019-01-24T20:29:53.852Z,38.93
2019-01-24T20:32:27.307Z,41.67
2019-01-24T20:34:57.083Z,41.00
2019-01-24T20:37:27.956Z,40.00
2019-01-24T20:39:57.720Z,39.77
2019-01-24T20:42:29.685Z,39.47
2019-01-24T20:45:00.211Z,37.67
2019-01-24T20:47:29.557Z,40.63
2019-01-24T20:50:01.103Z,38.57
2019-01-24T20:52:33.300Z,40.00
2019-01-24T20:55:03.094Z,40.27
2019-01-24T20:57:35.172Z,38.97
2019-01-24T21:00:05.580Z,40.93
2019-01-24T21:02:38.338Z,45.60
2019-01-24T21:05:09.685Z,41.07
2019-01-24T21:07:40.304Z,40.03
2019-01-24T21:10:10.842Z,41.00
2019-01-24T21:12:43.641Z,41.37
2019-01-24T21:15:13.392Z,44.30
2019-01-24T21:17:45.903Z,41.57
2019-01-24T21:20:18.356Z,41.03
2019-01-24T21:22:50.878Z,42.77
2019-01-24T21:25:22.045Z,43.37
2019-01-24T21:34:18.560Z,43.43
2019-01-24T21:36:58.000Z,41.13
2019-01-24T21:54:35.426Z,43.20
2019-01-24T21:57:10.889Z,44.83
2019-01-24T21:59:41.057Z,41.97
2019-01-24T22:02:14.104Z,44.80
2019-01-24T22:04:44.762Z,41.57
2019-01-24T22:07:22.192Z,43.50
2019-01-24T22:09:59.912Z,43.10
2019-01-24T22:12:37.068Z,42.73
2019-01-24T22:15:05.466Z,43.90
2019-01-24T22:17:41.404Z,46.27
2019-01-24T22:20:12.873Z,45.00
2019-01-24T22:22:42.781Z,45.17
2019-01-24T22:25:28.021Z,42.70
2019-01-24T22:27:58.809Z,44.23
2019-01-24T22:30:47.088Z,44.10
2019-01-24T22:33:18.109Z,41.10
2019-01-24T22:35:52.594Z,42.83
2019-01-24T22:38:23.390Z,45.93
2019-01-24T22:41:00.440Z,43.77
2019-01-24T22:43:33.870Z,46.17
2019-01-24T22:46:03.355Z,44.07
2019-01-24T22:48:37.334Z,42.57
2019-01-24T22:51:07.141Z,44.10
2019-01-24T22:53:41.201Z,43.93
2019-01-24T22:56:15.030Z,46.37
2019-01-24T22:58:46.553Z,47.67
2019-01-24T23:01:48.172Z,46.63
2019-01-24T23:04:34.253Z,44.50
2019-01-24T23:07:08.494Z,44.33
2019-01-24T23:09:44.048Z,45.40
2019-01-24T23:12:17.489Z,46.13
2019-01-24T23:14:53.664Z,47.87
2019-01-24T23:17:24.310Z,45.13
2019-01-24T23:19:55.954Z,45.03
2019-01-24T23:22:40.834Z,43.50
2019-01-24T23:25:19.257Z,43.93
2019-01-24T23:28:00.944Z,44.20
2019-01-24T23:30:35.906Z,39.87
2019-01-24T23:33:28.215Z,40.93
2019-01-24T23:35:57.935Z,44.07
2019-01-24T23:38:32.833Z,44.77
2019-01-24T23:41:17.645Z,47.17
2019-01-24T23:44:00.880Z,44.40
2019-01-24T23:46:34.033Z,45.20
2019-01-24T23:49:03.375Z,44.33
2019-01-24T23:51:50.138Z,46.33
2019-01-24T23:54:08.853Z,47.50
2019-01-24T23:57:00.713Z,46.60
2019-01-24T23:59:21.240Z,43.37
